createdAt,value
2019-03-15T00:00:28.462Z,5.94
2019-03-15T00:01:20.538Z,5.94
2019-03-15T00:02:13.089Z,5.93
2019-03-15T00:03:03.616Z,5.93
2019-03-15T00:03:54.265Z,5.93
2019-03-15T00:04:44.979Z,5.93
2019-03-15T00:05:36.076Z,5.93
2019-03-15T00:06:26.572Z,5.95
2019-03-15T00:07:17.328Z,5.95
2019-03-15T00:08:07.823Z,5.98
2019-03-15T00:08:57.661Z,5.98
2019-03-15T00:09:48.802Z,5.97
2019-03-15T00:10:39.261Z,5.97
2019-03-15T00:11:30.070Z,5.94
2019-03-15T00:12:19.917Z,5.87
2019-03-15T00:13:10.706Z,5.86
2019-03-15T00:14:00.959Z,5.82
2019-03-15T00:14:51.725Z,5.78
2019-03-15T00:15:41.809Z,5.78
2019-03-15T00:16:31.962Z,5.78
2019-03-15T00:17:25.255Z,5.79
2019-03-15T00:18:15.665Z,5.81
2019-03-15T00:19:06.033Z,5.85
2019-03-15T00:19:56.899Z,5.86
2019-03-15T00:20:47.282Z,5.88
2019-03-15T00:21:37.448Z,5.90
2019-03-15T00:22:27.278Z,5.94
2019-03-15T00:23:18.132Z,5.94
2019-03-15T00:24:08.340Z,5.97
2019-03-15T00:25:00.199Z,5.96
2019-03-15T00:25:50.098Z,5.96
2019-03-15T00:26:41.328Z,5.97
2019-03-15T00:27:31.487Z,5.97
2019-03-15T00:28:22.000Z,5.98
2019-03-15T00:29:12.651Z,6.00
2019-03-15T00:30:03.871Z,5.99
2019-03-15T00:30:54.107Z,6.06
2019-03-15T00:31:44.513Z,6.06
2019-03-15T00:32:34.452Z,6.07
2019-03-15T00:33:24.686Z,6.08
2019-03-15T00:34:15.121Z,6.10
2019-03-15T00:35:06.092Z,6.08
2019-03-15T00:35:56.486Z,6.06
2019-03-15T00:36:47.275Z,5.97
2019-03-15T00:37:38.911Z,5.96
2019-03-15T00:38:29.346Z,5.96
2019-03-15T00:39:19.490Z,5.96
2019-03-15T00:40:12.366Z,5.96
2019-03-15T00:41:02.971Z,5.95
2019-03-15T00:41:54.318Z,5.95
2019-03-15T00:42:44.233Z,5.94
2019-03-15T00:43:34.251Z,5.97
2019-03-15T00:44:25.410Z,5.96
2019-03-15T00:45:15.932Z,5.96
2019-03-15T00:46:06.314Z,5.99
2019-03-15T00:46:56.838Z,5.98
2019-03-15T00:47:47.191Z,5.98
2019-03-15T00:48:37.492Z,5.99
2019-03-15T00:49:28.978Z,5.98
2019-03-15T00:50:19.660Z,5.99
2019-03-15T00:51:10.066Z,6.00
2019-03-15T00:52:00.143Z,5.99
2019-03-15T00:52:50.880Z,6.02
2019-03-15T00:53:40.880Z,6.02
2019-03-15T00:54:31.180Z,6.01
2019-03-15T00:55:22.072Z,6.01
2019-03-15T00:56:12.120Z,6.02
2019-03-15T00:57:02.065Z,6.00
2019-03-15T00:57:52.393Z,6.04
2019-03-15T00:58:42.502Z,6.07
2019-03-15T00:59:32.580Z,6.07
2019-03-15T01:00:26.087Z,6.07
2019-03-15T01:01:16.455Z,6.07
2019-03-15T01:02:06.754Z,6.08
2019-03-15T01:02:57.120Z,6.08
2019-03-15T01:03:47.436Z,6.09
2019-03-15T01:04:37.897Z,6.09
2019-03-15T01:05:28.990Z,6.09
2019-03-15T01:06:19.115Z,6.07
2019-03-15T01:07:09.607Z,6.08
2019-03-15T01:08:01.461Z,6.09
2019-03-15T01:08:52.352Z,6.07
2019-03-15T01:09:42.396Z,6.08
2019-03-15T01:10:32.680Z,6.07
2019-03-15T01:11:22.721Z,6.08
2019-03-15T01:12:13.049Z,6.08
2019-03-15T01:13:03.753Z,6.07
2019-03-15T01:13:54.525Z,6.05
2019-03-15T01:14:45.326Z,6.04
2019-03-15T01:15:37.165Z,6.03
2019-03-15T01:16:27.386Z,6.03
2019-03-15T01:17:17.964Z,6.05
2019-03-15T01:18:08.622Z,6.04
2019-03-15T01:18:58.858Z,6.05
2019-03-15T01:19:48.856Z,6.03
2019-03-15T01:20:39.337Z,6.01
2019-03-15T01:21:29.671Z,6.01
2019-03-15T01:22:20.195Z,6.05
2019-03-15T01:23:10.070Z,6.04
2019-03-15T01:24:00.317Z,6.00
2019-03-15T01:24:51.331Z,6.00
2019-03-15T01:25:41.162Z,6.01
2019-03-15T01:26:31.691Z,5.99
2019-03-15T01:27:22.122Z,5.99
2019-03-15T01:28:12.382Z,5.99
2019-03-15T01:29:02.817Z,5.99
2019-03-15T01:29:52.958Z,5.98
2019-03-15T01:30:43.219Z,5.97
2019-03-15T01:31:33.880Z,5.99
2019-03-15T01:32:23.974Z,5.97
2019-03-15T01:33:16.155Z,5.98
2019-03-15T01:34:08.095Z,5.96
2019-03-15T01:34:58.070Z,5.95
2019-03-15T01:35:48.258Z,5.94
2019-03-15T01:36:38.377Z,5.95
2019-03-15T01:37:28.382Z,5.89
2019-03-15T01:38:19.700Z,5.82
2019-03-15T01:39:10.168Z,5.85
2019-03-15T01:40:00.817Z,5.82
2019-03-15T01:40:50.280Z,5.77
2019-03-15T01:41:40.603Z,5.79
2019-03-15T01:42:31.889Z,5.82
2019-03-15T01:43:21.983Z,5.81
2019-03-15T01:44:12.051Z,5.84
2019-03-15T01:45:02.490Z,5.83
2019-03-15T01:45:53.266Z,5.85
2019-03-15T01:46:43.224Z,5.87
2019-03-15T01:47:33.482Z,5.86
2019-03-15T01:48:24.072Z,5.79
2019-03-15T01:49:17.971Z,5.79
2019-03-15T01:50:08.487Z,5.80
2019-03-15T01:50:59.698Z,5.78
2019-03-15T01:51:50.151Z,5.79
2019-03-15T01:52:40.455Z,5.80
2019-03-15T01:53:31.032Z,5.83
2019-03-15T01:54:21.859Z,5.85
2019-03-15T01:55:12.388Z,5.87
2019-03-15T01:56:04.024Z,5.88
2019-03-15T01:56:53.821Z,5.87
2019-03-15T01:57:43.978Z,5.89
2019-03-15T01:58:34.867Z,5.89
2019-03-15T01:59:25.362Z,5.90
2019-03-15T02:00:16.507Z,5.89
2019-03-15T02:01:10.182Z,5.90
2019-03-15T02:02:01.029Z,5.94
2019-03-15T02:02:51.592Z,5.97
2019-03-15T02:03:42.016Z,5.98
2019-03-15T02:04:32.603Z,5.97
2019-03-15T02:05:22.918Z,5.97
2019-03-15T02:06:14.169Z,5.97
2019-03-15T02:07:04.412Z,5.96
2019-03-15T02:07:54.765Z,5.95
2019-03-15T02:08:44.901Z,5.96
2019-03-15T02:09:35.675Z,5.96
2019-03-15T02:10:26.296Z,5.97
2019-03-15T02:11:16.492Z,5.97
2019-03-15T02:12:07.711Z,6.00
2019-03-15T02:12:58.510Z,5.98
2019-03-15T02:13:48.864Z,5.99
2019-03-15T02:14:39.488Z,5.98
2019-03-15T02:15:29.341Z,5.96
2019-03-15T02:16:19.963Z,5.96
2019-03-15T02:17:10.215Z,5.98
2019-03-15T02:18:00.235Z,5.99
2019-03-15T02:18:51.080Z,5.97
2019-03-15T02:19:41.606Z,5.97
2019-03-15T02:20:32.344Z,5.98
2019-03-15T02:21:22.859Z,5.97
2019-03-15T02:22:13.043Z,5.98
2019-03-15T02:23:03.033Z,5.99
2019-03-15T02:23:53.896Z,5.98
2019-03-15T02:24:44.422Z,5.98
2019-03-15T02:25:35.050Z,5.95
2019-03-15T02:26:25.328Z,5.97
2019-03-15T02:27:16.442Z,5.99
2019-03-15T02:28:07.212Z,5.99
2019-03-15T02:28:58.728Z,6.02
2019-03-15T02:29:48.925Z,6.01
2019-03-15T02:30:39.095Z,6.01
2019-03-15T02:31:29.239Z,6.01
2019-03-15T02:32:19.294Z,6.00
2019-03-15T02:33:10.396Z,5.97
2019-03-15T02:34:00.928Z,5.99
2019-03-15T02:34:51.663Z,5.97
2019-03-15T02:35:41.572Z,5.97
2019-03-15T02:36:31.978Z,5.98
2019-03-15T02:37:21.850Z,5.97
2019-03-15T02:38:12.353Z,5.96
2019-03-15T02:39:03.312Z,5.93
2019-03-15T02:39:53.238Z,5.96
2019-03-15T02:40:43.197Z,5.97
2019-03-15T02:41:33.460Z,5.98
2019-03-15T02:42:23.829Z,5.98
2019-03-15T02:43:13.955Z,6.01
2019-03-15T02:44:03.888Z,6.01
2019-03-15T02:44:54.572Z,6.02
2019-03-15T02:45:45.182Z,6.02
2019-03-15T02:46:35.015Z,6.03
2019-03-15T02:47:25.434Z,6.02
2019-03-15T02:48:15.815Z,6.01
2019-03-15T02:49:05.795Z,6.02
2019-03-15T02:49:57.004Z,6.03
2019-03-15T02:50:47.540Z,6.03
2019-03-15T02:51:38.209Z,6.05
2019-03-15T02:52:28.199Z,6.04
2019-03-15T02:53:18.581Z,6.03
2019-03-15T02:54:09.210Z,6.03
2019-03-15T02:55:00.015Z,6.05
2019-03-15T02:55:50.450Z,6.05
2019-03-15T02:56:42.472Z,6.04
2019-03-15T02:57:32.693Z,6.06
2019-03-15T02:58:22.969Z,6.07
2019-03-15T02:59:13.822Z,6.06
2019-03-15T03:00:04.828Z,6.04
2019-03-15T03:00:54.907Z,6.05
2019-03-15T03:01:45.419Z,6.07
2019-03-15T03:02:35.751Z,6.07
2019-03-15T03:03:26.003Z,6.08
2019-03-15T03:04:16.983Z,6.05
2019-03-15T03:05:07.975Z,6.05
2019-03-15T03:05:58.592Z,6.05
2019-03-15T03:06:49.223Z,6.04
2019-03-15T03:07:39.259Z,6.03
2019-03-15T03:08:30.040Z,6.05
2019-03-15T03:09:19.882Z,6.07
2019-03-15T03:10:10.856Z,6.05
2019-03-15T03:11:01.668Z,6.06
2019-03-15T03:11:51.605Z,6.04
2019-03-15T03:12:43.986Z,6.04
2019-03-15T03:13:33.489Z,6.03
2019-03-15T03:14:24.115Z,6.06
2019-03-15T03:15:14.621Z,6.06
2019-03-15T03:16:05.211Z,6.04
2019-03-15T03:16:55.746Z,6.06
2019-03-15T03:17:46.483Z,6.06
2019-03-15T03:18:37.119Z,6.05
2019-03-15T03:19:28.211Z,6.04
2019-03-15T03:20:18.011Z,6.06
2019-03-15T03:21:08.513Z,6.07
2019-03-15T03:21:58.514Z,6.05
2019-03-15T03:22:48.712Z,6.03
2019-03-15T03:23:39.578Z,6.09
2019-03-15T03:24:30.025Z,6.06
2019-03-15T03:25:20.735Z,6.06
2019-03-15T03:26:11.463Z,6.05
2019-03-15T03:27:03.292Z,6.05
2019-03-15T03:27:54.075Z,6.05
2019-03-15T03:28:44.512Z,6.04
2019-03-15T03:29:35.394Z,6.04
2019-03-15T03:30:25.315Z,6.04
2019-03-15T03:31:16.390Z,6.03
2019-03-15T03:32:07.085Z,6.03
2019-03-15T03:32:57.560Z,6.04
2019-03-15T03:33:47.657Z,6.04
2019-03-15T03:34:40.504Z,6.03
2019-03-15T03:35:29.254Z,6.08
2019-03-15T03:36:19.868Z,6.07
2019-03-15T03:37:09.756Z,6.07
2019-03-15T03:37:59.884Z,6.08
2019-03-15T03:38:50.661Z,6.08
2019-03-15T03:39:41.169Z,6.09
2019-03-15T03:40:31.834Z,6.08
2019-03-15T03:41:23.175Z,6.10
2019-03-15T03:42:12.271Z,6.09
2019-03-15T03:43:02.737Z,6.10
2019-03-15T03:43:52.715Z,6.12
2019-03-15T03:44:42.799Z,6.10
2019-03-15T03:45:32.827Z,6.10
2019-03-15T03:46:24.530Z,6.11
2019-03-15T03:47:15.127Z,6.11
2019-03-15T03:48:05.489Z,6.09
2019-03-15T03:48:55.573Z,6.11
2019-03-15T03:49:45.611Z,6.13
2019-03-15T03:50:35.785Z,6.13
2019-03-15T03:51:25.708Z,6.15
2019-03-15T03:52:16.030Z,6.14
2019-03-15T03:53:06.321Z,6.14
2019-03-15T03:53:56.478Z,6.13
2019-03-15T03:54:46.732Z,6.14
2019-03-15T03:55:37.417Z,6.13
2019-03-15T03:56:28.176Z,6.12
2019-03-15T03:57:18.344Z,6.12
2019-03-15T03:58:08.969Z,6.12
2019-03-15T03:58:59.845Z,6.12
2019-03-15T03:59:50.781Z,6.13
2019-03-15T04:00:41.125Z,6.13
2019-03-15T04:01:31.286Z,6.14
2019-03-15T04:02:22.044Z,6.13
2019-03-15T04:03:12.453Z,6.16
2019-03-15T04:04:02.456Z,6.16
2019-03-15T04:04:53.492Z,6.13
2019-03-15T04:05:43.966Z,6.15
2019-03-15T04:06:33.844Z,6.17
2019-03-15T04:07:24.474Z,6.14
2019-03-15T04:08:14.931Z,6.14
2019-03-15T04:09:07.184Z,6.13
2019-03-15T04:09:57.410Z,6.13
2019-03-15T04:10:47.507Z,6.14
2019-03-15T04:11:38.345Z,6.13
2019-03-15T04:12:28.851Z,6.15
2019-03-15T04:13:19.211Z,6.15
2019-03-15T04:14:09.386Z,6.13
2019-03-15T04:14:59.635Z,6.14
2019-03-15T04:15:49.724Z,6.13
2019-03-15T04:16:39.996Z,6.13
2019-03-15T04:17:30.438Z,6.12
2019-03-15T04:18:21.315Z,6.13
2019-03-15T04:19:12.323Z,6.13
2019-03-15T04:20:03.203Z,6.12
2019-03-15T04:20:53.449Z,6.13
2019-03-15T04:21:43.601Z,6.14
2019-03-15T04:22:33.546Z,6.13
2019-03-15T04:23:24.271Z,6.14
2019-03-15T04:24:14.966Z,6.13
2019-03-15T04:25:07.248Z,6.12
2019-03-15T04:25:59.108Z,6.13
2019-03-15T04:26:49.201Z,6.13
2019-03-15T04:27:40.487Z,6.11
2019-03-15T04:28:31.288Z,6.09
2019-03-15T04:29:21.375Z,6.09
2019-03-15T04:30:12.183Z,6.10
2019-03-15T04:31:02.855Z,6.10
2019-03-15T04:31:53.963Z,6.08
2019-03-15T04:32:44.542Z,6.08
2019-03-15T04:33:35.815Z,6.09
2019-03-15T04:34:28.410Z,6.08
2019-03-15T04:35:16.064Z,6.06
2019-03-15T04:36:07.240Z,6.06
2019-03-15T04:36:59.134Z,6.07
2019-03-15T04:37:48.891Z,6.06
2019-03-15T04:38:39.737Z,6.06
2019-03-15T04:39:29.705Z,6.06
2019-03-15T04:40:20.397Z,6.05
2019-03-15T04:41:10.913Z,6.04
2019-03-15T04:42:01.811Z,6.05
2019-03-15T04:42:51.795Z,6.04
2019-03-15T04:43:41.999Z,6.04
2019-03-15T04:44:32.239Z,6.04
2019-03-15T04:45:22.301Z,6.03
2019-03-15T04:46:12.941Z,6.02
2019-03-15T04:47:03.612Z,6.02
2019-03-15T04:47:53.968Z,6.02
2019-03-15T04:48:44.294Z,6.04
2019-03-15T04:49:34.730Z,6.04
2019-03-15T04:50:25.567Z,6.02
2019-03-15T04:51:17.040Z,5.99
2019-03-15T04:52:07.757Z,6.00
2019-03-15T04:52:58.935Z,5.98
2019-03-15T04:53:49.576Z,5.98
2019-03-15T04:54:39.981Z,5.97
2019-03-15T04:55:30.574Z,5.96
2019-03-15T04:56:20.907Z,5.97
2019-03-15T04:57:11.442Z,5.97
2019-03-15T04:58:01.885Z,5.95
2019-03-15T04:58:51.969Z,5.95
2019-03-15T04:59:42.152Z,5.96
2019-03-15T05:00:33.840Z,5.97
2019-03-15T05:01:24.879Z,5.97
2019-03-15T05:02:14.940Z,5.96
2019-03-15T05:03:05.175Z,5.95
2019-03-15T05:03:55.321Z,5.97
2019-03-15T05:04:45.320Z,5.95
2019-03-15T05:05:35.589Z,5.97
2019-03-15T05:06:26.661Z,5.94
2019-03-15T05:07:16.976Z,5.95
2019-03-15T05:08:07.613Z,5.95
2019-03-15T05:08:59.065Z,5.95
2019-03-15T05:09:50.468Z,5.93
2019-03-15T05:10:40.351Z,5.94
2019-03-15T05:11:30.995Z,5.94
2019-03-15T05:12:21.856Z,5.95
2019-03-15T05:13:11.743Z,5.94
2019-03-15T05:14:02.280Z,5.94
2019-03-15T05:14:53.424Z,5.97
2019-03-15T05:15:44.201Z,5.97
2019-03-15T05:16:35.067Z,5.93
2019-03-15T05:17:25.306Z,5.94
2019-03-15T05:18:15.893Z,5.96
2019-03-15T05:19:06.265Z,5.95
2019-03-15T05:19:56.351Z,5.94
2019-03-15T05:20:46.911Z,5.97
2019-03-15T05:21:37.421Z,5.95
2019-03-15T05:22:27.637Z,5.96
2019-03-15T05:23:18.247Z,5.96
2019-03-15T05:24:09.572Z,5.97
2019-03-15T05:24:59.559Z,5.97
2019-03-15T05:25:50.456Z,5.97
2019-03-15T05:26:40.993Z,5.98
2019-03-15T05:27:31.494Z,5.98
2019-03-15T05:28:22.452Z,6.02
2019-03-15T05:29:13.232Z,6.00
2019-03-15T05:30:04.699Z,6.01
2019-03-15T05:30:55.459Z,6.02
2019-03-15T05:31:46.151Z,6.00
2019-03-15T05:32:36.591Z,6.01
2019-03-15T05:33:27.046Z,6.03
2019-03-15T05:34:17.747Z,6.03
2019-03-15T05:35:09.439Z,6.03
2019-03-15T05:36:00.503Z,6.02
2019-03-15T05:36:50.561Z,6.04
2019-03-15T05:37:40.763Z,6.04
2019-03-15T05:38:30.904Z,6.04
2019-03-15T05:39:24.209Z,6.05
2019-03-15T05:40:15.023Z,6.06
2019-03-15T05:41:05.791Z,6.06
2019-03-15T05:41:56.843Z,6.03
2019-03-15T05:42:46.869Z,6.05
2019-03-15T05:43:37.395Z,6.06
2019-03-15T05:44:27.661Z,6.07
2019-03-15T05:45:18.697Z,6.04
2019-03-15T05:46:09.256Z,6.05
2019-03-15T05:47:00.175Z,6.04
2019-03-15T05:47:51.441Z,6.04
2019-03-15T05:48:42.071Z,6.04
2019-03-15T05:49:32.126Z,6.06
2019-03-15T05:50:22.907Z,6.07
2019-03-15T05:51:13.270Z,6.05
2019-03-15T05:52:04.064Z,6.05
2019-03-15T05:52:54.586Z,6.10
2019-03-15T05:53:45.159Z,6.10
2019-03-15T05:54:35.561Z,6.08
2019-03-15T05:55:26.779Z,6.04
2019-03-15T05:56:16.611Z,6.05
2019-03-15T05:57:08.056Z,6.06
2019-03-15T05:57:58.879Z,6.02
2019-03-15T05:58:48.974Z,6.03
2019-03-15T05:59:41.221Z,6.05
2019-03-15T06:00:31.891Z,6.05
2019-03-15T06:01:23.631Z,6.04
2019-03-15T06:02:13.958Z,6.05
2019-03-15T06:03:05.085Z,6.06
2019-03-15T06:03:55.517Z,6.05
2019-03-15T06:04:46.009Z,6.06
2019-03-15T06:05:36.132Z,6.05
2019-03-15T06:06:26.017Z,6.02
2019-03-15T06:07:16.917Z,6.03
2019-03-15T06:08:08.660Z,6.05
2019-03-15T06:08:59.835Z,6.06
2019-03-15T06:09:50.221Z,6.10
2019-03-15T06:10:41.578Z,6.09
2019-03-15T06:11:33.441Z,6.05
2019-03-15T06:12:24.202Z,6.07
2019-03-15T06:13:14.656Z,6.08
2019-03-15T06:14:05.645Z,6.09
2019-03-15T06:14:55.559Z,6.08
2019-03-15T06:15:46.741Z,6.05
2019-03-15T06:16:37.447Z,5.92
2019-03-15T06:17:28.726Z,5.87
2019-03-15T06:18:19.699Z,5.80
2019-03-15T06:19:10.546Z,5.76
2019-03-15T06:20:01.143Z,5.65
2019-03-15T06:20:52.511Z,5.66
2019-03-15T06:21:42.923Z,5.66
2019-03-15T06:22:33.365Z,5.68
2019-03-15T06:23:24.456Z,5.68
2019-03-15T06:24:14.687Z,5.63
2019-03-15T06:25:05.870Z,5.61
2019-03-15T06:25:55.445Z,5.56
2019-03-15T06:26:45.901Z,5.38
2019-03-15T06:27:36.246Z,5.31
2019-03-15T06:28:27.049Z,5.27
2019-03-15T06:29:17.746Z,5.26
2019-03-15T06:30:08.583Z,5.26
2019-03-15T06:30:59.584Z,5.21
2019-03-15T06:31:50.747Z,5.21
2019-03-15T06:32:41.307Z,5.19
2019-03-15T06:33:33.002Z,5.17
2019-03-15T06:34:23.681Z,5.18
2019-03-15T06:35:14.610Z,5.19
2019-03-15T06:36:05.140Z,5.20
2019-03-15T06:36:55.798Z,5.20
2019-03-15T06:37:46.332Z,5.20
2019-03-15T06:38:37.409Z,5.22
2019-03-15T06:39:27.681Z,5.25
2019-03-15T06:40:18.332Z,5.22
2019-03-15T06:41:09.020Z,5.21
2019-03-15T06:41:59.080Z,5.22
2019-03-15T06:42:49.623Z,5.14
2019-03-15T06:43:40.385Z,5.16
2019-03-15T06:44:31.332Z,5.18
2019-03-15T06:45:23.724Z,5.18
2019-03-15T06:46:14.830Z,5.19
2019-03-15T06:47:05.299Z,5.21
2019-03-15T06:47:56.044Z,5.22
2019-03-15T06:48:47.345Z,5.23
2019-03-15T06:49:37.770Z,5.25
2019-03-15T06:50:28.267Z,5.26
2019-03-15T06:51:18.876Z,5.26
2019-03-15T06:52:10.964Z,5.27
2019-03-15T06:53:01.478Z,5.29
2019-03-15T06:53:51.764Z,5.27
2019-03-15T06:54:42.213Z,5.21
2019-03-15T06:55:32.907Z,5.23
2019-03-15T06:56:23.937Z,5.14
2019-03-15T06:57:15.275Z,5.17
2019-03-15T06:58:06.722Z,5.20
2019-03-15T06:58:57.838Z,5.22
2019-03-15T06:59:48.101Z,5.25
2019-03-15T07:00:38.225Z,5.26
2019-03-15T07:01:29.519Z,5.27
2019-03-15T07:02:20.199Z,5.29
2019-03-15T07:03:10.943Z,5.32
2019-03-15T07:04:01.357Z,5.35
2019-03-15T07:04:52.276Z,5.31
2019-03-15T07:05:42.659Z,5.35
2019-03-15T07:06:32.948Z,5.33
2019-03-15T07:07:23.622Z,5.38
2019-03-15T07:08:14.131Z,5.39
2019-03-15T07:09:05.751Z,5.40
2019-03-15T07:09:56.312Z,5.32
2019-03-15T07:10:46.281Z,5.39
2019-03-15T07:11:37.009Z,5.45
2019-03-15T07:12:27.458Z,5.50
2019-03-15T07:13:18.938Z,5.52
2019-03-15T07:14:09.513Z,5.52
2019-03-15T07:14:59.872Z,5.56
2019-03-15T07:15:50.512Z,5.60
2019-03-15T07:16:43.515Z,5.59
2019-03-15T07:17:34.138Z,5.62
2019-03-15T07:18:24.428Z,5.64
2019-03-15T07:19:25.718Z,5.63
2019-03-15T07:20:07.705Z,5.63
2019-03-15T07:20:57.683Z,5.68
2019-03-15T07:21:48.235Z,5.62
2019-03-15T07:22:38.727Z,5.60
2019-03-15T07:23:29.380Z,5.61
2019-03-15T07:24:25.177Z,5.64
2019-03-15T07:25:10.925Z,5.62
2019-03-15T07:26:01.967Z,5.59
2019-03-15T07:26:52.674Z,5.62
2019-03-15T07:27:43.644Z,5.66
2019-03-15T07:28:34.149Z,5.67
2019-03-15T07:29:24.060Z,5.69
2019-03-15T07:30:15.146Z,5.69
2019-03-15T07:31:06.240Z,5.69
2019-03-15T07:31:57.511Z,5.70
2019-03-15T07:32:47.910Z,5.69
2019-03-15T07:33:39.236Z,5.70
2019-03-15T07:34:29.747Z,5.72
2019-03-15T07:35:20.967Z,5.73
2019-03-15T07:36:11.179Z,5.73
2019-03-15T07:37:02.564Z,5.73
2019-03-15T07:37:52.616Z,5.74
2019-03-15T07:38:43.268Z,5.76
2019-03-15T07:39:34.604Z,5.75
2019-03-15T07:40:24.963Z,5.78
2019-03-15T07:41:15.018Z,5.79
2019-03-15T07:42:06.923Z,5.80
2019-03-15T07:43:02.037Z,5.81
2019-03-15T07:43:48.549Z,5.86
2019-03-15T07:44:38.495Z,5.90
2019-03-15T07:45:28.767Z,5.93
2019-03-15T07:46:18.978Z,5.93
2019-03-15T07:47:09.209Z,5.92
2019-03-15T07:47:59.343Z,5.95
2019-03-15T07:48:51.924Z,5.95
2019-03-15T07:49:42.330Z,5.94
2019-03-15T07:50:32.266Z,5.95
2019-03-15T07:51:22.803Z,5.97
2019-03-15T07:52:13.180Z,6.01
2019-03-15T07:53:03.348Z,6.04
2019-03-15T07:53:53.431Z,6.04
2019-03-15T07:54:43.912Z,6.05
2019-03-15T07:55:34.518Z,6.07
2019-03-15T07:56:28.527Z,6.08
2019-03-15T07:57:15.988Z,6.12
2019-03-15T07:58:07.494Z,6.06
2019-03-15T07:58:57.066Z,6.05
2019-03-15T07:59:47.534Z,6.04
2019-03-15T08:00:38.011Z,6.04
2019-03-15T08:01:28.634Z,6.04
2019-03-15T08:02:18.842Z,6.04
2019-03-15T08:03:10.273Z,6.03
2019-03-15T08:04:01.186Z,6.04
2019-03-15T08:04:52.314Z,6.03
2019-03-15T08:05:42.729Z,6.01
2019-03-15T08:06:35.169Z,6.03
2019-03-15T08:07:35.468Z,5.99
2019-03-15T08:08:14.199Z,5.97
2019-03-15T08:09:07.027Z,6.02
2019-03-15T08:09:57.451Z,6.05
2019-03-15T08:10:47.733Z,6.07
2019-03-15T08:11:41.929Z,6.02
2019-03-15T08:12:32.785Z,5.96
2019-03-15T08:13:23.351Z,6.02
2019-03-15T08:14:14.064Z,6.03
2019-03-15T08:15:05.173Z,6.03
2019-03-15T08:15:55.302Z,6.07
2019-03-15T08:16:46.274Z,5.88
2019-03-15T08:17:36.925Z,5.84
2019-03-15T08:18:27.151Z,5.87
2019-03-15T08:19:17.458Z,5.89
2019-03-15T08:20:09.285Z,5.87
2019-03-15T08:20:59.986Z,5.90
2019-03-15T08:21:50.990Z,5.93
2019-03-15T08:22:41.975Z,5.97
2019-03-15T08:23:32.889Z,6.01
2019-03-15T08:24:24.058Z,6.02
2019-03-15T08:25:14.655Z,5.97
2019-03-15T08:26:05.862Z,6.03
2019-03-15T08:26:56.126Z,6.07
2019-03-15T08:27:46.885Z,6.13
2019-03-15T08:28:37.993Z,6.06
2019-03-15T08:29:28.594Z,6.06
2019-03-15T08:30:19.008Z,5.97
2019-03-15T08:31:10.379Z,5.80
2019-03-15T08:32:00.464Z,5.86
2019-03-15T08:32:51.251Z,5.92
2019-03-15T08:33:42.248Z,5.97
2019-03-15T08:34:32.435Z,6.05
2019-03-15T08:35:24.469Z,6.09
2019-03-15T08:36:13.451Z,6.15
2019-03-15T08:37:03.814Z,6.22
2019-03-15T08:37:54.151Z,6.27
2019-03-15T08:38:47.774Z,6.34
2019-03-15T08:39:34.489Z,6.40
2019-03-15T08:40:26.103Z,6.40
2019-03-15T08:41:16.195Z,6.43
2019-03-15T08:42:06.767Z,6.47
2019-03-15T08:42:57.452Z,6.42
2019-03-15T08:43:48.721Z,6.42
2019-03-15T08:44:39.552Z,6.50
2019-03-15T08:45:30.929Z,6.51
2019-03-15T08:46:21.787Z,6.52
2019-03-15T08:47:12.539Z,6.57
2019-03-15T08:48:03.323Z,6.61
2019-03-15T08:48:53.940Z,6.66
2019-03-15T08:49:44.641Z,6.70
2019-03-15T08:50:35.740Z,6.71
2019-03-15T08:51:26.355Z,6.73
2019-03-15T08:52:17.567Z,6.75
2019-03-15T08:53:08.299Z,6.79
2019-03-15T08:53:58.770Z,6.72
2019-03-15T08:54:49.110Z,6.72
2019-03-15T08:55:40.170Z,6.74
2019-03-15T08:56:30.793Z,6.78
2019-03-15T08:57:21.889Z,6.80
2019-03-15T08:58:14.549Z,6.81
2019-03-15T08:59:02.605Z,6.76
2019-03-15T08:59:57.473Z,6.82
2019-03-15T09:00:43.704Z,6.87
2019-03-15T09:01:34.377Z,6.94
2019-03-15T09:02:24.704Z,7.02
2019-03-15T09:03:27.282Z,7.09
2019-03-15T09:04:06.532Z,7.16
2019-03-15T09:04:56.963Z,7.26
2019-03-15T09:05:47.529Z,7.29
2019-03-15T09:06:40.914Z,7.46
2019-03-15T09:07:29.267Z,7.53
2019-03-15T09:08:20.198Z,7.61
2019-03-15T09:09:10.494Z,7.61
2019-03-15T09:10:03.374Z,7.65
2019-03-15T09:10:51.899Z,7.71
2019-03-15T09:11:41.867Z,7.74
2019-03-15T09:12:32.404Z,7.71
2019-03-15T09:13:22.520Z,7.79
2019-03-15T09:14:12.902Z,7.85
2019-03-15T09:15:03.712Z,7.83
2019-03-15T09:15:54.811Z,7.85
2019-03-15T09:16:44.920Z,7.83
2019-03-15T09:17:38.049Z,7.84
2019-03-15T09:18:28.731Z,7.84
2019-03-15T09:19:19.527Z,7.89
2019-03-15T09:20:09.994Z,7.84
2019-03-15T09:21:00.185Z,7.82
2019-03-15T09:21:51.445Z,7.88
2019-03-15T09:22:43.262Z,7.94
2019-03-15T09:23:33.343Z,7.96
2019-03-15T09:24:23.717Z,7.93
2019-03-15T09:25:19.772Z,7.99
2019-03-15T09:26:06.746Z,8.02
2019-03-15T09:26:57.533Z,7.95
2019-03-15T09:27:48.364Z,7.93
2019-03-15T09:28:39.624Z,7.99
2019-03-15T09:29:29.644Z,8.00
2019-03-15T09:30:24.510Z,7.98
2019-03-15T09:31:11.073Z,7.99
2019-03-15T09:32:08.683Z,7.91
2019-03-15T09:32:52.332Z,7.89
2019-03-15T09:33:42.765Z,7.88
2019-03-15T09:34:34.129Z,7.93
2019-03-15T09:35:24.821Z,7.99
2019-03-15T09:36:15.096Z,8.03
2019-03-15T09:37:06.012Z,8.08
2019-03-15T09:37:56.583Z,8.18
2019-03-15T09:38:47.823Z,8.25
2019-03-15T09:39:38.675Z,8.27
2019-03-15T09:40:29.174Z,8.28
2019-03-15T09:41:31.019Z,8.31
2019-03-15T09:42:10.685Z,8.32
2019-03-15T09:43:00.828Z,8.41
2019-03-15T09:43:51.070Z,8.45
2019-03-15T09:44:42.358Z,8.53
2019-03-15T09:45:34.109Z,8.62
2019-03-15T09:46:24.479Z,8.64
2019-03-15T09:47:15.203Z,8.65
2019-03-15T09:48:05.965Z,8.65
2019-03-15T09:48:55.963Z,8.56
2019-03-15T09:49:46.845Z,8.49
2019-03-15T09:50:50.473Z,8.48
2019-03-15T09:51:27.201Z,8.45
2019-03-15T09:52:17.879Z,8.53
2019-03-15T09:53:08.080Z,8.55
2019-03-15T09:53:59.233Z,8.61
2019-03-15T09:54:49.145Z,8.69
2019-03-15T09:55:39.321Z,8.79
2019-03-15T09:56:29.603Z,8.89
2019-03-15T09:57:20.198Z,8.99
2019-03-15T09:58:10.342Z,9.07
2019-03-15T09:59:01.153Z,9.16
2019-03-15T09:59:52.779Z,9.25
2019-03-15T10:00:43.461Z,9.28
2019-03-15T10:01:35.469Z,9.30
2019-03-15T10:02:30.293Z,9.29
2019-03-15T10:03:22.025Z,9.39
2019-03-15T10:04:05.174Z,9.54
2019-03-15T10:04:55.350Z,9.68
2019-03-15T10:05:45.528Z,9.71
2019-03-15T10:06:36.847Z,9.65
2019-03-15T10:07:37.687Z,9.57
2019-03-15T10:08:17.893Z,9.55
2019-03-15T10:09:08.556Z,9.52
2019-03-15T10:09:58.541Z,9.40
2019-03-15T10:10:49.618Z,9.28
2019-03-15T10:11:41.166Z,9.19
2019-03-15T10:12:30.999Z,9.13
2019-03-15T10:13:21.155Z,9.08
2019-03-15T10:14:11.806Z,9.04
2019-03-15T10:15:02.061Z,8.99
2019-03-15T10:15:55.409Z,9.01
2019-03-15T10:16:42.564Z,9.01
2019-03-15T10:17:33.615Z,8.98
2019-03-15T10:18:24.425Z,8.95
2019-03-15T10:19:14.381Z,8.89
2019-03-15T10:20:05.725Z,8.86
2019-03-15T10:20:55.951Z,8.83
2019-03-15T10:21:47.719Z,8.83
2019-03-15T10:22:38.036Z,8.78
2019-03-15T10:23:27.913Z,8.79
2019-03-15T10:24:18.008Z,8.75
2019-03-15T10:25:09.540Z,8.72
2019-03-15T10:26:00.571Z,8.70
2019-03-15T10:26:51.852Z,8.71
2019-03-15T10:27:42.886Z,8.71
2019-03-15T10:28:32.841Z,8.65
2019-03-15T10:29:23.413Z,8.63
2019-03-15T10:30:13.695Z,8.69
2019-03-15T10:31:03.875Z,8.69
2019-03-15T10:31:54.266Z,8.61
2019-03-15T10:32:44.776Z,8.61
2019-03-15T10:33:35.716Z,8.60
2019-03-15T10:34:27.181Z,8.63
2019-03-15T10:35:18.740Z,8.65
2019-03-15T10:36:09.215Z,8.75
2019-03-15T10:37:00.913Z,8.81
2019-03-15T10:37:51.031Z,8.86
2019-03-15T10:38:41.304Z,8.91
2019-03-15T10:39:32.388Z,8.97
2019-03-15T10:40:22.745Z,9.01
2019-03-15T10:41:12.878Z,9.15
2019-03-15T10:42:03.654Z,9.23
2019-03-15T10:42:55.714Z,9.37
2019-03-15T10:43:44.995Z,9.50
2019-03-15T10:44:35.686Z,9.66
2019-03-15T10:45:26.487Z,9.76
2019-03-15T10:46:16.237Z,9.82
2019-03-15T10:47:06.654Z,9.88
2019-03-15T10:47:57.331Z,9.96
2019-03-15T10:48:47.967Z,10.03
2019-03-15T10:49:38.494Z,10.03
2019-03-15T10:50:28.306Z,10.00
2019-03-15T10:51:19.043Z,10.01
2019-03-15T10:52:09.758Z,9.91
2019-03-15T10:53:00.005Z,9.90
2019-03-15T10:53:50.069Z,9.85
2019-03-15T10:54:42.116Z,9.74
2019-03-15T10:55:31.856Z,9.69
2019-03-15T10:56:22.698Z,9.62
2019-03-15T10:57:12.902Z,9.73
2019-03-15T10:58:03.388Z,9.72
2019-03-15T10:58:54.590Z,9.74
2019-03-15T10:59:44.959Z,9.64
2019-03-15T11:00:35.724Z,9.62
2019-03-15T11:01:25.812Z,9.51
2019-03-15T11:02:16.665Z,9.54
2019-03-15T11:03:07.580Z,9.73
2019-03-15T11:03:57.467Z,9.68
2019-03-15T11:04:47.514Z,9.78
2019-03-15T11:05:37.880Z,9.92
2019-03-15T11:06:28.443Z,9.96
2019-03-15T11:07:20.356Z,10.04
2019-03-15T11:08:10.790Z,10.14
2019-03-15T11:09:03.179Z,10.17
2019-03-15T11:09:53.756Z,10.21
2019-03-15T11:10:44.225Z,10.25
2019-03-15T11:11:34.512Z,10.32
2019-03-15T11:12:28.726Z,10.36
2019-03-15T11:13:19.216Z,10.29
2019-03-15T11:14:10.937Z,10.26